ADDS TAF Board (Experimental) INFO Settings

IDs: Format: Expanded Condensed

KCLE - Cleveland/Hopkins In, OH, US

Issued at 0854 UTC 01 Apr 2015
Updated at: 1037 UTC 01 Apr 2015
Time0951Z 01/11Z 01/12Z 01/13Z 01/14Z 01/15Z 01/16Z 01/17Z 01/18Z 01/19Z 01/20Z 01/21Z 01/22Z 01/23Z
Type OBS PRVL PRVL PRVL PRVL PRVL PRVL PRVL PRVL PRVL PRVL PRVL PRVL PRVL
VIS 9 >6 >6 >6 >6 >6 >6 >6 >6 >6 >6 >6 >6 >6
CIG 70 100 100 100 100 100 100 100 100 200 200 200 200 200
Cover BKN BKN BKN BKN BKN BKN BKN BKN BKN BKN BKN BKN BKN BKN
FltCat VFR VFR VFR VFR VFR VFR VFR VFR VFR VFR VFR VFR VFR VFR
WX -- -- -- -- -- -- -- -- -- -- -- -- -- --
WDir 180 200 200 200 200 200 200 200 200 250 250 250 250 250
WSpd 6 4 4 4 4 4 4 4 4 6 6 6 6 6
WGst -- -- -- -- -- -- -- -- -- -- -- -- -- --
R06/24
XWnd -5 -2 -2 -2 -2 -2 -2 -2 -2 2 2 2 2 2
HWnd -4 -3 -3 -3 -3 -3 -3 -3 -3 -6 -6 -6 -6 -6
R10/28
XWnd -6 -4 -4 -4 -4 -4 -4 -4 -4 -2 -2 -2 -2 -2
HWnd 0 -1 -1 -1 -1 -1 -1 -1 -1 -6 -6 -6 -6 -6

NOTE: TEMPO conditions in [brackets]. Keep in mind TEMPO conditions might be better (lower impact) than prevailing conditions.

Raw TAF
KCLE 010854Z 0109/0212 20004KT P6SM SCT060 BKN100
  FM011900 25006KT P6SM SCT040 BKN200
  FM020100 18006KT P6SM BKN150


Raw METAR
KCLE 010951Z 18006KT 9SM BKN070 BKN090 01/M02 A3006 RMK AO2 SLP188 T00061017
KCLE 010851Z 22003KT 8SM OVC100 M01/M02 A3005 RMK AO2 SLP184 T10061022 53010
KCLE 010751Z 18004KT 8SM BKN120 M01/M02 A3003 RMK AO2 SLP177 T10111022

METAR Board
Radar Display
Forecast Discussion

TAF Board Legend

Potential Impact
Threat None Slight Moderate High
Visibility (sm) ≥5.1 5.1>X≥3 3>X≥1 <1
Ceiling (100 ft) ≥30.1 30.1>X≥10 10>X≥5 <5
Wind Speed (kt) <10 10≤X<20 20≤X<30 ≥30
Wind Gust (kt) <15 15≤X<25 25≤X<35 ≥35
Weather No Wx Reported VCTS,-TS,-FZRA,SN TS,FZRA +TS,+FZRA,+SN